createdAt,value
2022-09-15T00:00:05.180Z,98440.91
2022-09-15T00:00:17.191Z,98444.94
2022-09-15T00:00:29.156Z,98438.97
2022-09-15T00:00:41.045Z,98439.94
2022-09-15T00:00:54.023Z,98440.75
2022-09-15T00:01:07.031Z,98442.69
2022-09-15T00:01:19.194Z,98446.59
2022-09-15T00:01:31.311Z,98444.50
2022-09-15T00:01:43.465Z,98446.31
2022-09-15T00:01:55.438Z,98445.19
2022-09-15T00:02:08.492Z,98440.75
2022-09-15T00:02:20.629Z,98447.69
2022-09-15T00:02:32.855Z,98443.50
2022-09-15T00:02:44.949Z,98444.38
2022-09-15T00:02:57.124Z,98447.28
2022-09-15T00:03:09.196Z,98446.44
2022-09-15T00:03:22.822Z,98449.91
2022-09-15T00:03:35.359Z,98449.66
2022-09-15T00:03:47.396Z,98443.00
2022-09-15T00:03:59.428Z,98451.88
2022-09-15T00:04:11.328Z,98447.97
2022-09-15T00:04:23.215Z,98447.13
2022-09-15T00:04:35.201Z,98450.59
2022-09-15T00:04:47.108Z,98444.38
2022-09-15T00:04:59.256Z,98446.00
2022-09-15T00:05:11.990Z,98451.28
2022-09-15T00:05:23.924Z,98445.19
2022-09-15T00:05:35.976Z,98449.34
2022-09-15T00:05:48.204Z,98448.66
2022-09-15T00:06:00.105Z,98444.25
2022-09-15T00:06:12.547Z,98451.03
2022-09-15T00:06:24.689Z,98448.53
2022-09-15T00:06:36.626Z,98445.75
2022-09-15T00:06:48.541Z,98439.34
2022-09-15T00:07:00.575Z,98442.81
2022-09-15T00:07:12.477Z,98441.03
2022-09-15T00:07:24.337Z,98444.38
2022-09-15T00:07:36.715Z,98444.63
2022-09-15T00:07:48.628Z,98446.59
2022-09-15T00:08:00.681Z,98437.72
2022-09-15T00:08:13.218Z,98441.03
2022-09-15T00:08:25.836Z,98440.75
2022-09-15T00:08:38.486Z,98447.13
2022-09-15T00:08:50.471Z,98441.03
2022-09-15T00:09:04.047Z,98438.41
2022-09-15T00:09:15.976Z,98443.38
2022-09-15T00:09:27.866Z,98440.47
2022-09-15T00:09:39.772Z,98442.41
2022-09-15T00:09:51.636Z,98441.44
2022-09-15T00:10:06.401Z,98442.69
2022-09-15T00:10:18.639Z,98438.41
2022-09-15T00:10:30.831Z,98439.78
2022-09-15T00:10:53.465Z,98439.34
2022-09-15T00:11:12.570Z,98439.66
2022-09-15T00:11:27.334Z,98434.38
2022-09-15T00:11:39.411Z,98434.94
2022-09-15T00:11:51.310Z,98439.94
2022-09-15T00:12:03.307Z,98436.72
2022-09-15T00:12:15.308Z,98434.38
2022-09-15T00:12:27.861Z,98441.03
2022-09-15T00:12:39.794Z,98441.16
2022-09-15T00:12:51.744Z,98443.69
2022-09-15T00:13:04.024Z,98440.75
2022-09-15T00:13:16.813Z,98437.41
2022-09-15T00:13:29.443Z,98441.59
2022-09-15T00:13:42.150Z,98439.94
2022-09-15T00:13:56.188Z,98442.69
2022-09-15T00:14:08.883Z,98441.88
2022-09-15T00:14:20.942Z,98440.22
2022-09-15T00:14:32.832Z,98441.88
2022-09-15T00:14:44.764Z,98445.63
2022-09-15T00:14:57.058Z,98441.88
2022-09-15T00:15:13.162Z,98442.69
2022-09-15T00:15:25.130Z,98445.22
2022-09-15T00:15:37.004Z,98445.22
2022-09-15T00:15:48.987Z,98442.56
2022-09-15T00:16:01.187Z,98443.13
2022-09-15T00:16:15.328Z,98442.31
2022-09-15T00:16:32.730Z,98440.50
2022-09-15T00:16:44.974Z,98447.97
2022-09-15T00:16:57.022Z,98443.25
2022-09-15T00:17:09.025Z,98442.44
2022-09-15T00:17:21.224Z,98440.78
2022-09-15T00:17:33.094Z,98439.09
2022-09-15T00:17:50.033Z,98443.97
2022-09-15T00:18:01.976Z,98443.13
2022-09-15T00:18:13.960Z,98435.50
2022-09-15T00:18:25.965Z,98444.13
2022-09-15T00:18:39.474Z,98441.47
2022-09-15T00:18:51.591Z,98451.34
2022-09-15T00:19:04.639Z,98451.63
2022-09-15T00:19:16.601Z,98444.38
2022-09-15T00:19:28.475Z,98441.31
2022-09-15T00:19:40.401Z,98445.50
2022-09-15T00:19:52.516Z,98439.94
2022-09-15T00:20:06.481Z,98442.31
2022-09-15T00:20:22.061Z,98435.09
2022-09-15T00:20:33.944Z,98441.06
2022-09-15T00:20:46.215Z,98441.06
2022-09-15T00:20:58.376Z,98442.72
2022-09-15T00:21:19.843Z,98443.44
2022-09-15T00:21:33.863Z,98448.84
2022-09-15T00:21:45.754Z,98437.31
2022-09-15T00:21:57.664Z,98438.28
2022-09-15T00:22:09.534Z,98442.75
2022-09-15T00:22:21.567Z,98448.72
2022-09-15T00:22:33.704Z,98432.72
2022-09-15T00:22:45.829Z,98443.84
2022-09-15T00:22:57.726Z,98440.38
2022-09-15T00:23:11.550Z,98443.97
2022-09-15T00:23:23.990Z,98441.88
2022-09-15T00:23:37.211Z,98448.84
2022-09-15T00:23:50.116Z,98448.03
2022-09-15T00:24:02.390Z,98441.91
2022-09-15T00:24:14.282Z,98435.53
2022-09-15T00:24:26.230Z,98444.00
2022-09-15T00:24:38.179Z,98444.41
2022-09-15T00:24:50.160Z,98441.75
2022-09-15T00:25:02.046Z,98439.28
2022-09-15T00:25:14.600Z,98442.75
2022-09-15T00:25:26.541Z,98439.53
2022-09-15T00:25:49.668Z,98444.25
2022-09-15T00:26:01.805Z,98440.53
2022-09-15T00:26:16.593Z,98443.84
2022-09-15T00:26:30.515Z,98442.03
2022-09-15T00:26:42.432Z,98439.13
2022-09-15T00:26:54.372Z,98435.25
2022-09-15T00:27:06.265Z,98439.84
2022-09-15T00:27:18.309Z,98437.47
2022-09-15T00:27:31.673Z,98433.56
2022-09-15T00:27:43.872Z,98446.63
2022-09-15T00:27:55.778Z,98437.19
2022-09-15T00:28:07.647Z,98436.06
2022-09-15T00:28:22.249Z,98440.59
2022-09-15T00:28:34.191Z,98435.91
2022-09-15T00:28:46.836Z,98440.47
2022-09-15T00:29:00.238Z,98438.78
2022-09-15T00:29:12.915Z,98432.44
2022-09-15T00:29:24.814Z,98437.00
2022-09-15T00:29:36.699Z,98438.09
2022-09-15T00:29:48.579Z,98440.75
2022-09-15T00:30:00.885Z,98438.78
2022-09-15T00:30:12.920Z,98440.34
2022-09-15T00:30:24.895Z,98445.50
2022-09-15T00:30:41.143Z,98438.78
2022-09-15T00:30:54.898Z,98440.94
2022-09-15T00:31:09.877Z,98434.44
2022-09-15T00:31:23.686Z,98434.81
2022-09-15T00:31:35.649Z,98444.13
2022-09-15T00:31:47.520Z,98441.78
2022-09-15T00:31:59.478Z,98439.41
2022-09-15T00:32:11.366Z,98432.47
2022-09-15T00:32:23.249Z,98431.09
2022-09-15T00:32:35.282Z,98439.97
2022-09-15T00:32:47.160Z,98435.25
2022-09-15T00:32:59.037Z,98441.34
2022-09-15T00:33:12.181Z,98434.44
2022-09-15T00:33:24.461Z,98437.19
2022-09-15T00:33:36.975Z,98443.28
2022-09-15T00:33:50.544Z,98441.34
2022-09-15T00:34:02.768Z,98442.72
2022-09-15T00:34:14.658Z,98442.47
2022-09-15T00:34:26.529Z,98432.75
2022-09-15T00:34:38.434Z,98438.59
2022-09-15T00:34:51.241Z,98443.88
2022-09-15T00:35:04.726Z,98445.25
2022-09-15T00:35:16.706Z,98442.75
2022-09-15T00:35:28.588Z,98434.41
2022-09-15T00:35:42.559Z,98438.03
2022-09-15T00:35:54.468Z,98444.41
2022-09-15T00:36:11.041Z,98431.78
2022-09-15T00:36:24.665Z,98438.59
2022-09-15T00:36:36.626Z,98438.44
2022-09-15T00:36:48.501Z,98439.84
2022-09-15T00:37:00.470Z,98437.72
2022-09-15T00:37:12.356Z,98441.63
2022-09-15T00:37:24.284Z,98441.91
2022-09-15T00:37:36.190Z,98439.69
2022-09-15T00:37:48.082Z,98440.66
2022-09-15T00:37:59.973Z,98440.78
2022-09-15T00:38:13.354Z,98444.41
2022-09-15T00:38:25.233Z,98442.59
2022-09-15T00:38:38.558Z,98439.97
2022-09-15T00:38:50.906Z,98440.78
2022-09-15T00:39:03.516Z,98434.81
2022-09-15T00:39:15.425Z,98436.34
2022-09-15T00:39:27.476Z,98436.91
2022-09-15T00:39:39.347Z,98434.00
2022-09-15T00:39:53.068Z,98436.91
2022-09-15T00:40:05.557Z,98433.03
2022-09-15T00:40:17.658Z,98438.28
2022-09-15T00:40:29.728Z,98438.84
2022-09-15T00:40:49.947Z,98438.00
2022-09-15T00:41:03.671Z,98443.84
2022-09-15T00:41:19.399Z,98443.59
2022-09-15T00:41:31.893Z,98445.19
2022-09-15T00:41:44.028Z,98442.69
2022-09-15T00:41:55.932Z,98439.50
2022-09-15T00:42:14.645Z,98440.03
2022-09-15T00:42:26.577Z,98434.06
2022-09-15T00:42:38.504Z,98433.81
2022-09-15T00:42:50.380Z,98430.06
2022-09-15T00:43:02.260Z,98437.13
2022-09-15T00:43:16.215Z,98430.59
2022-09-15T00:43:52.383Z,98429.66
2022-09-15T00:44:35.956Z,98434.63
2022-09-15T00:44:59.930Z,98432.97
2022-09-15T00:45:16.858Z,98434.91
2022-09-15T00:45:28.998Z,98435.16
2022-09-15T00:45:41.175Z,98436.53
2022-09-15T00:45:53.117Z,98433.53
2022-09-15T00:46:05.214Z,98433.38
2022-09-15T00:46:22.816Z,98435.56
2022-09-15T00:46:43.442Z,98430.72
2022-09-15T00:47:15.662Z,98428.22
2022-09-15T00:47:38.209Z,98443.75
2022-09-15T00:47:50.202Z,98434.59
2022-09-15T00:48:02.878Z,98440.69
2022-09-15T00:48:20.699Z,98433.47
2022-09-15T00:48:34.343Z,98444.00
2022-09-15T00:49:15.229Z,98442.34
2022-09-15T00:49:32.328Z,98442.06
2022-09-15T00:49:45.069Z,98438.88
2022-09-15T00:50:08.131Z,98437.38
2022-09-15T00:50:21.015Z,98427.78
2022-09-15T00:50:34.672Z,98435.03
2022-09-15T00:50:52.506Z,98435.72
2022-09-15T00:51:07.202Z,98428.50
2022-09-15T00:51:32.564Z,98431.28
2022-09-15T00:52:10.293Z,98430.84
2022-09-15T00:52:47.173Z,98431.84
2022-09-15T00:53:01.938Z,98433.22
2022-09-15T00:53:15.822Z,98433.53
2022-09-15T00:53:28.334Z,98428.94
2022-09-15T00:53:41.754Z,98431.84
2022-09-15T00:53:54.089Z,98432.16
2022-09-15T00:54:13.070Z,98432.97
2022-09-15T00:54:40.030Z,98427.56
2022-09-15T00:55:16.931Z,98434.38
2022-09-15T00:55:49.458Z,98425.47
2022-09-15T00:56:03.417Z,98424.38
2022-09-15T00:56:17.281Z,98427.16
2022-09-15T00:56:31.897Z,98429.50
2022-09-15T00:56:46.510Z,98428.25
2022-09-15T00:57:02.088Z,98429.94
2022-09-15T00:57:20.907Z,98433.25
2022-09-15T00:57:38.989Z,98430.88
2022-09-15T00:58:00.340Z,98429.25
2022-09-15T00:58:18.717Z,98431.88
2022-09-15T00:58:56.944Z,98428.94
2022-09-15T00:59:14.936Z,98431.34
2022-09-15T00:59:30.178Z,98426.09
2022-09-15T00:59:44.392Z,98431.19
2022-09-15T00:59:59.475Z,98428.72
2022-09-15T01:00:14.618Z,98430.22
2022-09-15T01:00:28.110Z,98427.03
2022-09-15T01:00:50.405Z,98432.75
2022-09-15T01:01:04.432Z,98438.09
2022-09-15T01:01:16.754Z,98426.59
2022-09-15T01:01:31.261Z,98439.38
2022-09-15T01:01:46.021Z,98434.00
2022-09-15T01:02:21.297Z,98435.34
2022-09-15T01:02:35.913Z,98431.59
2022-09-15T01:02:49.403Z,98433.84
2022-09-15T01:03:02.067Z,98433.84
2022-09-15T01:03:14.770Z,98428.72
2022-09-15T01:03:30.401Z,98429.41
2022-09-15T01:03:42.919Z,98428.47
2022-09-15T01:03:55.365Z,98433.44
2022-09-15T01:04:07.313Z,98439.41
2022-09-15T01:04:19.448Z,98431.78
2022-09-15T01:04:32.135Z,98436.63
2022-09-15T01:04:44.413Z,98428.25
2022-09-15T01:04:58.690Z,98434.94
2022-09-15T01:05:15.161Z,98430.19
2022-09-15T01:05:31.695Z,98437.16
2022-09-15T01:05:48.441Z,98428.00
2022-09-15T01:06:20.481Z,98426.31
2022-09-15T01:06:45.080Z,98433.81
2022-09-15T01:07:02.194Z,98429.09
2022-09-15T01:07:16.780Z,98435.47
2022-09-15T01:07:35.669Z,98427.16
2022-09-15T01:07:56.208Z,98436.88
2022-09-15T01:08:54.486Z,98435.22
2022-09-15T01:09:20.959Z,98431.84
2022-09-15T01:09:45.266Z,98432.13
2022-09-15T01:10:00.384Z,98429.66
2022-09-15T01:10:22.503Z,98431.88
2022-09-15T01:10:37.394Z,98428.25
2022-09-15T01:10:51.972Z,98431.59
2022-09-15T01:11:03.864Z,98434.69
2022-09-15T01:11:16.953Z,98432.63
2022-09-15T01:11:29.421Z,98438.59
2022-09-15T01:11:42.178Z,98433.88
2022-09-15T01:11:54.151Z,98431.78
2022-09-15T01:12:06.370Z,98432.13
2022-09-15T01:12:19.223Z,98432.69
2022-09-15T01:12:31.300Z,98429.50
2022-09-15T01:12:43.271Z,98437.69
2022-09-15T01:12:59.416Z,98432.13
2022-09-15T01:13:13.720Z,98432.44
2022-09-15T01:13:25.761Z,98433.38
2022-09-15T01:13:37.671Z,98432.13
2022-09-15T01:13:49.558Z,98434.78
2022-09-15T01:14:01.961Z,98431.19
2022-09-15T01:14:13.858Z,98438.78
2022-09-15T01:14:25.719Z,98425.91
2022-09-15T01:14:37.587Z,98427.56
2022-09-15T01:14:49.520Z,98432.13
2022-09-15T01:15:01.839Z,98430.63
2022-09-15T01:15:14.356Z,98430.34
2022-09-15T01:15:35.944Z,98430.47
2022-09-15T01:15:53.635Z,98432.44
2022-09-15T01:16:18.632Z,98426.44
2022-09-15T01:17:03.755Z,98425.75
2022-09-15T01:17:34.305Z,98418.25
2022-09-15T01:18:24.485Z,98424.91
2022-09-15T01:18:57.337Z,98426.28
2022-09-15T01:19:22.376Z,98426.00
2022-09-15T01:19:55.873Z,98426.31
2022-09-15T01:20:32.377Z,98423.53
2022-09-15T01:21:08.445Z,98421.97
2022-09-15T01:21:28.306Z,98418.63
2022-09-15T01:21:47.653Z,98421.84
2022-09-15T01:22:32.545Z,98419.63
2022-09-15T01:23:06.023Z,98423.53
2022-09-15T01:23:34.242Z,98420.44
2022-09-15T01:24:17.038Z,98426.16
2022-09-15T01:24:44.892Z,98418.94
2022-09-15T01:25:38.770Z,98423.53
2022-09-15T01:26:09.266Z,98418.25
2022-09-15T01:26:35.872Z,98419.09
2022-09-15T01:26:56.656Z,98412.84
2022-09-15T01:27:37.619Z,98416.56
2022-09-15T01:27:43.888Z,98414.22
2022-09-15T01:28:14.527Z,98417.41
2022-09-15T01:29:12.368Z,98419.66
2022-09-15T01:29:36.289Z,98414.63
2022-09-15T01:29:54.078Z,98416.56
2022-09-15T01:30:09.675Z,98409.91
2022-09-15T01:30:23.507Z,98412.41
2022-09-15T01:30:42.364Z,98411.31
2022-09-15T01:31:03.375Z,98416.56
2022-09-15T01:31:24.142Z,98412.69
2022-09-15T01:32:12.738Z,98414.09
2022-09-15T01:33:06.529Z,98409.06
2022-09-15T01:33:43.931Z,98407.13
2022-09-15T01:34:06.483Z,98404.78
2022-09-15T01:34:20.647Z,98401.88
2022-09-15T01:34:43.222Z,98404.38
2022-09-15T01:35:04.982Z,98406.88
2022-09-15T01:35:34.976Z,98412.41
2022-09-15T01:36:01.833Z,98401.53
2022-09-15T01:36:32.584Z,98404.88
2022-09-15T01:37:04.950Z,98409.31
2022-09-15T01:37:24.363Z,98408.78
2022-09-15T01:37:46.499Z,98407.97
2022-09-15T01:38:30.049Z,98409.31
2022-09-15T01:39:04.017Z,98406.03
2022-09-15T01:39:21.556Z,98409.19
2022-09-15T01:39:39.823Z,98409.06
2022-09-15T01:39:53.475Z,98410.75
2022-09-15T01:40:06.828Z,98411.00
2022-09-15T01:40:23.184Z,98413.22
2022-09-15T01:40:41.498Z,98415.16
2022-09-15T01:41:07.184Z,98410.75
2022-09-15T01:41:35.001Z,98416.72
2022-09-15T01:41:55.587Z,98415.72
2022-09-15T01:42:12.763Z,98407.94
2022-09-15T01:42:27.022Z,98414.06
2022-09-15T01:42:40.299Z,98416.72
2022-09-15T01:42:53.982Z,98417.25
2022-09-15T01:43:09.133Z,98415.47
2022-09-15T01:43:27.823Z,98405.75
2022-09-15T01:43:47.675Z,98415.72
2022-09-15T01:44:13.096Z,98410.59
2022-09-15T01:44:29.251Z,98415.63
2022-09-15T01:44:49.409Z,98413.00
2022-09-15T01:45:08.633Z,98408.53
2022-09-15T01:45:26.331Z,98406.84
2022-09-15T01:45:42.139Z,98411.31
2022-09-15T01:45:54.212Z,98406.72
2022-09-15T01:46:08.342Z,98402.44
2022-09-15T01:46:23.379Z,98407.56
2022-09-15T01:46:40.293Z,98407.72
2022-09-15T01:47:00.128Z,98403.16
2022-09-15T01:47:15.985Z,98404.09
2022-09-15T01:47:30.283Z,98406.72
2022-09-15T01:47:42.979Z,98406.84
2022-09-15T01:47:57.491Z,98404.09
2022-09-15T01:48:09.977Z,98400.50
2022-09-15T01:48:25.451Z,98400.22
2022-09-15T01:48:38.992Z,98406.59
2022-09-15T01:48:54.791Z,98400.50
2022-09-15T01:49:10.990Z,98402.16
2022-09-15T01:49:28.267Z,98403.84
2022-09-15T01:49:47.576Z,98405.47
2022-09-15T01:50:06.404Z,98396.63
2022-09-15T01:50:28.632Z,98401.91
2022-09-15T01:50:48.871Z,98402.44
2022-09-15T01:51:03.152Z,98398.56
2022-09-15T01:51:16.388Z,98400.91
2022-09-15T01:51:30.039Z,98401.91
2022-09-15T01:51:44.894Z,98395.63
2022-09-15T01:51:56.815Z,98405.22
2022-09-15T01:52:08.804Z,98405.22
2022-09-15T01:52:23.404Z,98400.50
2022-09-15T01:52:36.603Z,98405.34
2022-09-15T01:52:53.638Z,98398.56
2022-09-15T01:53:11.009Z,98399.38
2022-09-15T01:53:23.450Z,98401.91
2022-09-15T01:53:35.835Z,98394.94
2022-09-15T01:53:49.594Z,98396.63
2022-09-15T01:54:03.809Z,98396.88
2022-09-15T01:54:19.990Z,98405.47
2022-09-15T01:54:45.706Z,98395.81
2022-09-15T01:55:03.638Z,98400.50
2022-09-15T01:55:23.604Z,98408.28
2022-09-15T01:55:41.299Z,98399.38
2022-09-15T01:56:02.227Z,98401.91
2022-09-15T01:56:14.228Z,98399.25
2022-09-15T01:56:26.171Z,98401.59
2022-09-15T01:56:39.176Z,98405.22
2022-09-15T01:56:51.061Z,98401.59
2022-09-15T01:57:03.434Z,98403.28
2022-09-15T01:57:22.711Z,98402.47
2022-09-15T01:57:34.700Z,98403.97
2022-09-15T01:57:46.622Z,98408.28
2022-09-15T01:57:59.542Z,98405.50
2022-09-15T01:58:11.422Z,98404.69
2022-09-15T01:58:23.470Z,98404.69
2022-09-15T01:58:37.795Z,98405.38
2022-09-15T01:58:51.218Z,98406.06
2022-09-15T01:59:03.625Z,98400.78
2022-09-15T01:59:16.032Z,98406.91
2022-09-15T01:59:28.221Z,98407.72
2022-09-15T01:59:40.133Z,98406.75
2022-09-15T01:59:54.557Z,98404.94
2022-09-15T02:00:07.360Z,98408.41
2022-09-15T02:00:19.380Z,98400.66
2022-09-15T02:00:35.092Z,98408.00
2022-09-15T02:00:57.129Z,98403.56
2022-09-15T02:01:34.221Z,98405.25
2022-09-15T02:01:51.803Z,98409.09
2022-09-15T02:02:20.443Z,98411.75
2022-09-15T02:02:44.363Z,98413.56
2022-09-15T02:03:04.099Z,98408.56
2022-09-15T02:03:26.743Z,98405.47
2022-09-15T02:03:47.575Z,98404.66
2022-09-15T02:04:09.976Z,98400.22
2022-09-15T02:04:30.241Z,98407.44
2022-09-15T02:04:50.924Z,98408.28
2022-09-15T02:05:11.225Z,98406.59
2022-09-15T02:05:30.631Z,98405.47
2022-09-15T02:05:48.543Z,98400.22
2022-09-15T02:06:10.179Z,98402.31
2022-09-15T02:06:39.613Z,98401.06
2022-09-15T02:07:11.613Z,98397.31
2022-09-15T02:07:38.388Z,98405.22
2022-09-15T02:08:06.190Z,98398.00
2022-09-15T02:08:25.266Z,98403.00
2022-09-15T02:08:37.141Z,98400.66
2022-09-15T02:08:58.528Z,98399.66
2022-09-15T02:09:18.220Z,98397.72
2022-09-15T02:09:38.774Z,98396.63
2022-09-15T02:10:02.606Z,98393.00
2022-09-15T02:10:21.886Z,98400.09
2022-09-15T02:10:40.152Z,98401.06
2022-09-15T02:11:04.126Z,98398.28
2022-09-15T02:11:21.437Z,98399.25
2022-09-15T02:11:40.075Z,98400.22
2022-09-15T02:12:35.318Z,98403.00
2022-09-15T02:13:35.855Z,98396.34
2022-09-15T02:14:10.410Z,98389.41
2022-09-15T02:14:43.365Z,98400.38
2022-09-15T02:15:07.941Z,98397.47
2022-09-15T02:15:30.721Z,98399.13
2022-09-15T02:15:56.777Z,98396.34
2022-09-15T02:16:20.042Z,98390.09
2022-09-15T02:16:35.240Z,98399.66
2022-09-15T02:16:52.462Z,98397.47
2022-09-15T02:17:05.377Z,98392.88
2022-09-15T02:17:20.677Z,98408.16
2022-09-15T02:17:36.052Z,98394.97
2022-09-15T02:17:54.146Z,98398.56
2022-09-15T02:18:08.435Z,98400.50
2022-09-15T02:18:39.884Z,98399.41
2022-09-15T02:19:10.651Z,98395.41
2022-09-15T02:19:33.444Z,98395.78
2022-09-15T02:19:50.991Z,98399.53
2022-09-15T02:20:08.719Z,98404.13
2022-09-15T02:20:33.192Z,98408.28
2022-09-15T02:21:00.684Z,98401.88
2022-09-15T02:21:18.787Z,98402.59
2022-09-15T02:21:40.829Z,98403.84
2022-09-15T02:22:10.493Z,98401.88
2022-09-15T02:22:30.283Z,98405.50
2022-09-15T02:22:47.992Z,98404.13
2022-09-15T02:23:08.342Z,98401.50
2022-09-15T02:23:26.658Z,98410.34
2022-09-15T02:23:43.669Z,98401.63
2022-09-15T02:24:01.246Z,98410.78
2022-09-15T02:24:19.600Z,98399.94
2022-09-15T02:25:07.105Z,98406.91
2022-09-15T02:25:28.842Z,98399.94
2022-09-15T02:25:45.827Z,98400.94
2022-09-15T02:26:04.876Z,98401.63
2022-09-15T02:26:22.670Z,98400.81
2022-09-15T02:26:36.199Z,98395.41
2022-09-15T02:26:50.145Z,98399.94
2022-09-15T02:27:04.210Z,98398.59
2022-09-15T02:27:27.383Z,98398.59
2022-09-15T02:27:47.647Z,98397.47
2022-09-15T02:28:03.927Z,98396.91
2022-09-15T02:28:16.908Z,98403.69
2022-09-15T02:28:31.608Z,98400.25
2022-09-15T02:28:45.556Z,98402.59
2022-09-15T02:29:00.366Z,98401.88
2022-09-15T02:29:16.149Z,98398.56
2022-09-15T02:29:31.684Z,98398.84
2022-09-15T02:29:47.098Z,98396.22
2022-09-15T02:30:05.852Z,98407.72
2022-09-15T02:30:19.829Z,98403.69
2022-09-15T02:30:35.652Z,98397.72
2022-09-15T02:30:49.324Z,98393.31
2022-09-15T02:31:03.896Z,98398.41
2022-09-15T02:31:18.274Z,98397.47
2022-09-15T02:31:32.976Z,98386.66
2022-09-15T02:31:47.155Z,98394.41
2022-09-15T02:32:06.870Z,98400.53
2022-09-15T02:32:23.140Z,98395.78
2022-09-15T02:32:38.374Z,98396.34
2022-09-15T02:32:56.930Z,98396.06
2022-09-15T02:33:16.894Z,98397.72
2022-09-15T02:33:34.968Z,98397.59
2022-09-15T02:33:51.372Z,98396.91
2022-09-15T02:34:13.667Z,98394.41
2022-09-15T02:34:30.987Z,98401.59
2022-09-15T02:34:48.054Z,98400.66
2022-09-15T02:35:06.574Z,98394.69
2022-09-15T02:35:18.847Z,98410.50
2022-09-15T02:35:34.860Z,98400.53
2022-09-15T02:35:47.439Z,98406.63
2022-09-15T02:35:59.992Z,98398.97
2022-09-15T02:36:15.652Z,98395.38
2022-09-15T02:36:29.297Z,98398.00
2022-09-15T02:36:42.379Z,98403.28
2022-09-15T02:36:55.113Z,98400.53
2022-09-15T02:37:09.796Z,98398.00
2022-09-15T02:37:23.976Z,98395.38
2022-09-15T02:37:37.891Z,98399.66
2022-09-15T02:37:51.235Z,98396.06
2022-09-15T02:38:06.391Z,98396.88
2022-09-15T02:38:18.431Z,98401.47
2022-09-15T02:38:36.803Z,98393.28
2022-09-15T02:38:57.372Z,98394.13
2022-09-15T02:39:13.411Z,98398.00
2022-09-15T02:39:32.047Z,98393.16
2022-09-15T02:39:58.033Z,98396.06
2022-09-15T02:40:11.049Z,98398.28
2022-09-15T02:40:23.186Z,98399.66
2022-09-15T02:40:36.620Z,98398.72
2022-09-15T02:40:49.071Z,98402.75
2022-09-15T02:41:01.147Z,98400.09
2022-09-15T02:41:14.150Z,98402.75
2022-09-15T02:41:27.201Z,98398.41
2022-09-15T02:41:39.696Z,98399.81
2022-09-15T02:41:51.668Z,98396.91
2022-09-15T02:42:04.056Z,98398.28
2022-09-15T02:42:26.573Z,98399.25
2022-09-15T02:42:39.224Z,98408.13
2022-09-15T02:42:56.976Z,98396.63
2022-09-15T02:43:12.364Z,98394.69
2022-09-15T02:43:24.327Z,98395.25
2022-09-15T02:43:44.964Z,98401.34
2022-09-15T02:43:56.841Z,98396.34
2022-09-15T02:44:09.940Z,98393.44
2022-09-15T02:44:22.491Z,98391.06
2022-09-15T02:44:34.524Z,98399.25
2022-09-15T02:44:46.375Z,98395.25
2022-09-15T02:44:59.475Z,98403.28
2022-09-15T02:45:11.335Z,98406.59
2022-09-15T02:45:26.840Z,98396.88
2022-09-15T02:45:39.208Z,98400.75
2022-09-15T02:45:51.213Z,98388.56
2022-09-15T02:46:03.388Z,98397.19
2022-09-15T02:46:18.139Z,98396.88
2022-09-15T02:46:30.197Z,98400.75
2022-09-15T02:46:43.015Z,98393.84
2022-09-15T02:46:55.440Z,98399.13
2022-09-15T02:47:07.539Z,98401.19
2022-09-15T02:47:19.933Z,98400.22
2022-09-15T02:47:32.013Z,98398.56
2022-09-15T02:47:43.872Z,98397.19
2022-09-15T02:47:56.185Z,98401.75
2022-09-15T02:48:11.621Z,98393.28
2022-09-15T02:48:25.158Z,98398.28
2022-09-15T02:48:37.019Z,98399.81
2022-09-15T02:48:49.175Z,98403.28
2022-09-15T02:49:01.068Z,98396.75
2022-09-15T02:49:13.649Z,98401.75
2022-09-15T02:49:25.707Z,98399.78
2022-09-15T02:49:37.562Z,98401.19
2022-09-15T02:49:49.544Z,98397.44
2022-09-15T02:50:01.472Z,98407.72
2022-09-15T02:50:13.359Z,98389.69
2022-09-15T02:50:28.442Z,98399.13
2022-09-15T02:50:41.160Z,98402.59
2022-09-15T02:50:53.035Z,98403.28
2022-09-15T02:51:04.954Z,98398.84
2022-09-15T02:51:18.129Z,98397.88
2022-09-15T02:51:30.987Z,98401.47
2022-09-15T02:51:42.874Z,98402.59
2022-09-15T02:51:54.980Z,98393.56
2022-09-15T02:52:07.312Z,98402.28
2022-09-15T02:52:19.613Z,98396.88
2022-09-15T02:52:31.534Z,98399.38
2022-09-15T02:52:43.559Z,98404.78
2022-09-15T02:52:55.835Z,98393.00
2022-09-15T02:53:07.883Z,98399.66
2022-09-15T02:53:19.732Z,98399.41
2022-09-15T02:53:31.623Z,98395.78
2022-09-15T02:53:44.466Z,98401.63
2022-09-15T02:53:56.658Z,98397.72
2022-09-15T02:54:08.612Z,98392.44
2022-09-15T02:54:20.617Z,98395.94
2022-09-15T02:54:32.583Z,98399.41
2022-09-15T02:54:44.479Z,98398.28
2022-09-15T02:54:56.333Z,98393.16
2022-09-15T02:55:08.771Z,98391.91
2022-09-15T02:55:20.803Z,98398.56
2022-09-15T02:55:33.343Z,98397.59
2022-09-15T02:55:45.209Z,98396.63
2022-09-15T02:55:57.887Z,98401.88
2022-09-15T02:56:09.974Z,98394.41
2022-09-15T02:56:22.260Z,98398.41
2022-09-15T02:56:34.159Z,98393.44
2022-09-15T02:56:46.996Z,98398.72
2022-09-15T02:57:00.142Z,98395.94
2022-09-15T02:57:13.808Z,98394.84
2022-09-15T02:57:25.671Z,98395.66
2022-09-15T02:57:37.604Z,98394.69
2022-09-15T02:57:49.495Z,98404.13
2022-09-15T02:58:01.566Z,98402.19
2022-09-15T02:58:13.423Z,98396.22
2022-09-15T02:58:25.393Z,98401.19
2022-09-15T02:58:37.428Z,98395.22
2022-09-15T02:58:49.346Z,98394.16
2022-09-15T02:59:01.496Z,98398.28
2022-09-15T02:59:14.268Z,98402.19
2022-09-15T02:59:26.264Z,98404.69
2022-09-15T02:59:57.058Z,98394.69
2022-09-15T03:00:13.200Z,98399.44
2022-09-15T03:00:26.754Z,98400.41
2022-09-15T03:00:39.120Z,98393.31
2022-09-15T03:00:51.061Z,98392.50
2022-09-15T03:01:04.597Z,98406.38
2022-09-15T03:01:16.914Z,98402.78
2022-09-15T03:01:32.125Z,98396.66
2022-09-15T03:01:44.850Z,98399.44
2022-09-15T03:01:58.880Z,98403.03
2022-09-15T03:02:11.986Z,98405.81
2022-09-15T03:02:25.212Z,98401.41
2022-09-15T03:02:37.343Z,98399.72
2022-09-15T03:02:52.197Z,98398.03
2022-09-15T03:03:04.067Z,98400.81
2022-09-15T03:03:18.417Z,98404.25
2022-09-15T03:03:32.012Z,98394.44
2022-09-15T03:03:45.884Z,98402.22
2022-09-15T03:03:58.364Z,98401.94
2022-09-15T03:04:10.301Z,98398.59
2022-09-15T03:04:22.180Z,98399.16
2022-09-15T03:04:36.010Z,98398.19
2022-09-15T03:04:48.396Z,98399.84
2022-09-15T03:05:00.415Z,98398.47
2022-09-15T03:05:14.418Z,98391.69
2022-09-15T03:05:29.193Z,98400.41
2022-09-15T03:05:41.073Z,98398.75
2022-09-15T03:05:52.979Z,98396.13
2022-09-15T03:06:23.568Z,98398.75
2022-09-15T03:06:37.229Z,98403.03
2022-09-15T03:06:49.109Z,98399.72
2022-09-15T03:07:00.987Z,98402.91
2022-09-15T03:07:12.988Z,98399.44
2022-09-15T03:07:24.973Z,98401.41
2022-09-15T03:07:40.008Z,98398.59
2022-09-15T03:07:52.375Z,98398.47
2022-09-15T03:08:04.340Z,98400.84
2022-09-15T03:08:16.211Z,98400.84
2022-09-15T03:08:28.461Z,98401.09
2022-09-15T03:08:41.012Z,98394.72
2022-09-15T03:08:55.372Z,98399.72
2022-09-15T03:09:08.137Z,98398.72
2022-09-15T03:09:20.028Z,98401.25
2022-09-15T03:09:31.892Z,98398.59
2022-09-15T03:09:44.332Z,98403.31
2022-09-15T03:09:56.298Z,98402.50
2022-09-15T03:10:10.512Z,98400.28
2022-09-15T03:10:24.039Z,98396.66
2022-09-15T03:10:35.937Z,98400.69
2022-09-15T03:10:47.804Z,98399.72
2022-09-15T03:10:59.676Z,98396.94
2022-09-15T03:11:12.110Z,98391.13
2022-09-15T03:11:28.479Z,98401.66
2022-09-15T03:11:40.391Z,98397.22